sensor_id;sensor_type;location;lat;lon;timestamp;temperature;humidity
18753;DHT22;9505;50.882;5.350;2022-12-29T00:01:34;11.00;99.90
18753;DHT22;9505;50.882;5.350;2022-12-29T00:04:00;11.10;99.90
18753;DHT22;9505;50.882;5.350;2022-12-29T00:06:26;11.10;99.90
18753;DHT22;9505;50.882;5.350;2022-12-29T00:08:52;11.20;99.90
18753;DHT22;9505;50.882;5.350;2022-12-29T00:11:21;11.30;99.90
18753;DHT22;9505;50.882;5.350;2022-12-29T00:13:47;11.30;99.90
18753;DHT22;9505;50.882;5.350;2022-12-29T00:16:33;11.40;99.90
18753;DHT22;9505;50.882;5.350;2022-12-29T00:18:59;11.50;99.90
18753;DHT22;9505;50.882;5.350;2022-12-29T00:21:25;11.50;99.90
18753;DHT22;9505;50.882;5.350;2022-12-29T00:24:15;11.50;99.90
18753;DHT22;9505;50.882;5.350;2022-12-29T00:29:47;11.70;99.90
18753;DHT22;9505;50.882;5.350;2022-12-29T00:32:32;11.70;99.90
18753;DHT22;9505;50.882;5.350;2022-12-29T00:35:31;11.70;99.90
18753;DHT22;9505;50.882;5.350;2022-12-29T00:38:02;11.70;99.90
18753;DHT22;9505;50.882;5.350;2022-12-29T00:40:47;11.70;99.90
18753;DHT22;9505;50.882;5.350;2022-12-29T00:43:31;11.70;99.90
18753;DHT22;9505;50.882;5.350;2022-12-29T00:46:15;11.80;99.90
18753;DHT22;9505;50.882;5.350;2022-12-29T00:48:40;11.80;99.90
18753;DHT22;9505;50.882;5.350;2022-12-29T00:51:24;11.80;99.90
18753;DHT22;9505;50.882;5.350;2022-12-29T00:53:50;11.80;99.90
18753;DHT22;9505;50.882;5.350;2022-12-29T00:56:16;11.80;99.90
18753;DHT22;9505;50.882;5.350;2022-12-29T00:58:41;11.80;99.90
18753;DHT22;9505;50.882;5.350;2022-12-29T01:01:08;11.80;99.90
18753;DHT22;9505;50.882;5.350;2022-12-29T01:03:35;11.70;99.90
18753;DHT22;9505;50.882;5.350;2022-12-29T01:06:02;11.70;99.90
18753;DHT22;9505;50.882;5.350;2022-12-29T01:08:29;11.70;99.90
18753;DHT22;9505;50.882;5.350;2022-12-29T01:11:09;11.70;99.90
18753;DHT22;9505;50.882;5.350;2022-12-29T01:13:35;11.70;99.90
18753;DHT22;9505;50.882;5.350;2022-12-29T01:16:01;11.70;99.90
18753;DHT22;9505;50.882;5.350;2022-12-29T01:18:27;11.60;99.90
18753;DHT22;9505;50.882;5.350;2022-12-29T01:21:06;11.60;99.90
18753;DHT22;9505;50.882;5.350;2022-12-29T01:23:32;11.60;99.90
18753;DHT22;9505;50.882;5.350;2022-12-29T01:26:12;11.60;99.90
18753;DHT22;9505;50.882;5.350;2022-12-29T01:28:37;11.70;99.90
18753;DHT22;9505;50.882;5.350;2022-12-29T01:31:11;11.70;99.90
18753;DHT22;9505;50.882;5.350;2022-12-29T01:33:37;11.70;99.90
18753;DHT22;9505;50.882;5.350;2022-12-29T01:36:04;11.70;99.90
18753;DHT22;9505;50.882;5.350;2022-12-29T01:38:30;11.70;99.90
18753;DHT22;9505;50.882;5.350;2022-12-29T01:40:56;11.70;99.90
18753;DHT22;9505;50.882;5.350;2022-12-29T01:43:48;11.70;99.90
18753;DHT22;9505;50.882;5.350;2022-12-29T01:46:41;11.80;99.90
18753;DHT22;9505;50.882;5.350;2022-12-29T01:49:17;11.90;99.90
18753;DHT22;9505;50.882;5.350;2022-12-29T01:51:53;12.00;99.90
18753;DHT22;9505;50.882;5.350;2022-12-29T01:54:22;11.90;99.90
18753;DHT22;9505;50.882;5.350;2022-12-29T01:56:51;11.90;99.90
18753;DHT22;9505;50.882;5.350;2022-12-29T01:59:20;11.90;99.90
18753;DHT22;9505;50.882;5.350;2022-12-29T02:01:48;11.90;99.90
18753;DHT22;9505;50.882;5.350;2022-12-29T02:04:14;11.90;99.90
18753;DHT22;9505;50.882;5.350;2022-12-29T02:06:55;11.80;99.90
18753;DHT22;9505;50.882;5.350;2022-12-29T02:09:23;11.80;99.90
18753;DHT22;9505;50.882;5.350;2022-12-29T02:11:49;11.70;99.90
18753;DHT22;9505;50.882;5.350;2022-12-29T02:14:15;11.60;99.90
18753;DHT22;9505;50.882;5.350;2022-12-29T02:19:42;11.60;99.90
18753;DHT22;9505;50.882;5.350;2022-12-29T02:31:10;11.60;99.90
18753;DHT22;9505;50.882;5.350;2022-12-29T02:36:32;11.50;99.90
18753;DHT22;9505;50.882;5.350;2022-12-29T02:39:25;11.50;99.90
18753;DHT22;9505;50.882;5.350;2022-12-29T02:42:08;11.50;99.90
18753;DHT22;9505;50.882;5.350;2022-12-29T02:44:59;11.50;99.90
18753;DHT22;9505;50.882;5.350;2022-12-29T02:47:47;11.50;99.90
18753;DHT22;9505;50.882;5.350;2022-12-29T02:50:25;11.60;99.90
18753;DHT22;9505;50.882;5.350;2022-12-29T02:52:59;11.60;99.90
18753;DHT22;9505;50.882;5.350;2022-12-29T02:55:26;11.60;99.90
18753;DHT22;9505;50.882;5.350;2022-12-29T02:58:18;11.60;99.90
18753;DHT22;9505;50.882;5.350;2022-12-29T03:12:13;11.70;99.90
18753;DHT22;9505;50.882;5.350;2022-12-29T03:14:37;11.70;99.90
18753;DHT22;9505;50.882;5.350;2022-12-29T03:17:29;11.60;99.90
18753;DHT22;9505;50.882;5.350;2022-12-29T03:20:04;11.60;99.90
18753;DHT22;9505;50.882;5.350;2022-12-29T03:22:34;11.60;99.90
18753;DHT22;9505;50.882;5.350;2022-12-29T03:25:21;11.60;99.90
18753;DHT22;9505;50.882;5.350;2022-12-29T03:27:53;11.60;99.90
18753;DHT22;9505;50.882;5.350;2022-12-29T03:30:21;11.60;99.90
18753;DHT22;9505;50.882;5.350;2022-12-29T03:32:55;11.60;99.90
18753;DHT22;9505;50.882;5.350;2022-12-29T03:35:24;11.70;99.90
18753;DHT22;9505;50.882;5.350;2022-12-29T03:37:58;11.70;99.90
18753;DHT22;9505;50.882;5.350;2022-12-29T03:40:26;11.60;99.90
18753;DHT22;9505;50.882;5.350;2022-12-29T03:42:53;11.60;99.90
18753;DHT22;9505;50.882;5.350;2022-12-29T03:45:19;11.60;99.90
18753;DHT22;9505;50.882;5.350;2022-12-29T03:47:45;11.70;99.90
18753;DHT22;9505;50.882;5.350;2022-12-29T03:50:13;11.70;99.90
18753;DHT22;9505;50.882;5.350;2022-12-29T03:52:39;11.80;99.90
18753;DHT22;9505;50.882;5.350;2022-12-29T03:55:05;11.80;99.90
18753;DHT22;9505;50.882;5.350;2022-12-29T03:57:31;11.80;99.90
18753;DHT22;9505;50.882;5.350;2022-12-29T03:59:56;11.80;99.90
18753;DHT22;9505;50.882;5.350;2022-12-29T04:02:22;11.80;99.90
18753;DHT22;9505;50.882;5.350;2022-12-29T04:04:49;11.90;99.90
18753;DHT22;9505;50.882;5.350;2022-12-29T04:07:14;11.80;99.90
18753;DHT22;9505;50.882;5.350;2022-12-29T04:09:40;11.80;99.90
18753;DHT22;9505;50.882;5.350;2022-12-29T04:12:05;11.60;99.90
18753;DHT22;9505;50.882;5.350;2022-12-29T04:14:31;11.50;99.90
18753;DHT22;9505;50.882;5.350;2022-12-29T04:16:56;11.50;99.90
18753;DHT22;9505;50.882;5.350;2022-12-29T04:19:22;11.40;99.90
18753;DHT22;9505;50.882;5.350;2022-12-29T04:21:48;11.40;99.90
18753;DHT22;9505;50.882;5.350;2022-12-29T04:24:13;11.40;99.90
18753;DHT22;9505;50.882;5.350;2022-12-29T04:26:39;11.20;99.90
18753;DHT22;9505;50.882;5.350;2022-12-29T04:29:05;10.90;99.90
18753;DHT22;9505;50.882;5.350;2022-12-29T04:31:30;10.80;99.90
18753;DHT22;9505;50.882;5.350;2022-12-29T04:33:56;10.70;99.90
18753;DHT22;9505;50.882;5.350;2022-12-29T04:36:23;10.70;99.90
18753;DHT22;9505;50.882;5.350;2022-12-29T04:38:48;10.70;99.90
18753;DHT22;9505;50.882;5.350;2022-12-29T04:41:14;10.70;99.90
18753;DHT22;9505;50.882;5.350;2022-12-29T04:43:40;10.70;99.90
18753;DHT22;9505;50.882;5.350;2022-12-29T04:46:06;10.70;99.90
18753;DHT22;9505;50.882;5.350;2022-12-29T04:48:31;10.70;99.90
18753;DHT22;9505;50.882;5.350;2022-12-29T04:50:57;10.70;99.90
18753;DHT22;9505;50.882;5.350;2022-12-29T04:53:23;10.80;99.90
18753;DHT22;9505;50.882;5.350;2022-12-29T04:55:50;10.90;99.90
18753;DHT22;9505;50.882;5.350;2022-12-29T04:58:16;11.00;99.90
18753;DHT22;9505;50.882;5.350;2022-12-29T05:00:42;11.00;99.90
18753;DHT22;9505;50.882;5.350;2022-12-29T05:03:07;11.00;99.90
18753;DHT22;9505;50.882;5.350;2022-12-29T05:05:33;11.10;99.90
18753;DHT22;9505;50.882;5.350;2022-12-29T05:07:58;11.20;99.90
18753;DHT22;9505;50.882;5.350;2022-12-29T05:10:24;11.20;99.90
18753;DHT22;9505;50.882;5.350;2022-12-29T05:12:49;11.20;99.90
18753;DHT22;9505;50.882;5.350;2022-12-29T05:15:15;11.20;99.90
18753;DHT22;9505;50.882;5.350;2022-12-29T05:17:41;11.30;99.90
18753;DHT22;9505;50.882;5.350;2022-12-29T05:20:07;11.20;99.90
18753;DHT22;9505;50.882;5.350;2022-12-29T05:22:32;11.20;99.90
18753;DHT22;9505;50.882;5.350;2022-12-29T05:24:58;11.20;99.90
18753;DHT22;9505;50.882;5.350;2022-12-29T05:27:24;11.20;99.90
18753;DHT22;9505;50.882;5.350;2022-12-29T05:29:49;11.20;99.90
18753;DHT22;9505;50.882;5.350;2022-12-29T05:32:15;11.20;99.90
18753;DHT22;9505;50.882;5.350;2022-12-29T05:34:40;11.20;99.90
18753;DHT22;9505;50.882;5.350;2022-12-29T05:37:06;11.20;99.90
18753;DHT22;9505;50.882;5.350;2022-12-29T05:39:31;11.30;99.90
18753;DHT22;9505;50.882;5.350;2022-12-29T05:41:57;11.40;99.90
18753;DHT22;9505;50.882;5.350;2022-12-29T05:44:23;11.40;99.90
18753;DHT22;9505;50.882;5.350;2022-12-29T05:46:48;11.40;99.90
18753;DHT22;9505;50.882;5.350;2022-12-29T05:49:14;11.40;99.90
18753;DHT22;9505;50.882;5.350;2022-12-29T05:51:40;11.40;99.90
18753;DHT22;9505;50.882;5.350;2022-12-29T05:54:05;11.40;99.90
18753;DHT22;9505;50.882;5.350;2022-12-29T05:56:31;11.40;99.90
18753;DHT22;9505;50.882;5.350;2022-12-29T05:58:56;11.40;99.90
18753;DHT22;9505;50.882;5.350;2022-12-29T06:01:22;11.40;99.90
18753;DHT22;9505;50.882;5.350;2022-12-29T06:03:48;11.30;99.90
18753;DHT22;9505;50.882;5.350;2022-12-29T06:06:13;11.30;99.90
18753;DHT22;9505;50.882;5.350;2022-12-29T06:08:39;11.30;99.90
18753;DHT22;9505;50.882;5.350;2022-12-29T06:11:05;11.20;99.90
18753;DHT22;9505;50.882;5.350;2022-12-29T06:13:30;11.20;99.90
18753;DHT22;9505;50.882;5.350;2022-12-29T06:15:56;11.20;99.90
18753;DHT22;9505;50.882;5.350;2022-12-29T06:18:21;11.20;99.90
18753;DHT22;9505;50.882;5.350;2022-12-29T06:20:47;11.10;99.90
18753;DHT22;9505;50.882;5.350;2022-12-29T06:23:13;11.10;99.90
18753;DHT22;9505;50.882;5.350;2022-12-29T06:25:39;11.10;99.90
18753;DHT22;9505;50.882;5.350;2022-12-29T06:28:05;11.10;99.90
18753;DHT22;9505;50.882;5.350;2022-12-29T06:30:31;11.10;99.90
18753;DHT22;9505;50.882;5.350;2022-12-29T06:32:58;11.00;99.90
18753;DHT22;9505;50.882;5.350;2022-12-29T06:35:24;11.00;99.90
18753;DHT22;9505;50.882;5.350;2022-12-29T06:37:49;10.90;99.90
18753;DHT22;9505;50.882;5.350;2022-12-29T06:40:15;10.90;99.90
18753;DHT22;9505;50.882;5.350;2022-12-29T06:42:41;10.90;99.90
18753;DHT22;9505;50.882;5.350;2022-12-29T06:45:06;10.90;99.90
18753;DHT22;9505;50.882;5.350;2022-12-29T06:47:33;10.90;99.90
18753;DHT22;9505;50.882;5.350;2022-12-29T06:50:00;10.80;99.90
18753;DHT22;9505;50.882;5.350;2022-12-29T06:52:26;10.80;99.90
18753;DHT22;9505;50.882;5.350;2022-12-29T06:54:54;10.80;99.90
18753;DHT22;9505;50.882;5.350;2022-12-29T06:57:20;10.70;99.90
18753;DHT22;9505;50.882;5.350;2022-12-29T06:59:46;10.80;99.90
18753;DHT22;9505;50.882;5.350;2022-12-29T07:02:12;10.90;99.90
18753;DHT22;9505;50.882;5.350;2022-12-29T07:04:39;10.80;99.90
18753;DHT22;9505;50.882;5.350;2022-12-29T07:07:05;10.90;99.90
18753;DHT22;9505;50.882;5.350;2022-12-29T07:09:30;10.90;99.90
18753;DHT22;9505;50.882;5.350;2022-12-29T07:11:56;11.00;99.90
18753;DHT22;9505;50.882;5.350;2022-12-29T07:14:21;11.00;99.90
18753;DHT22;9505;50.882;5.350;2022-12-29T07:16:47;11.10;99.90
18753;DHT22;9505;50.882;5.350;2022-12-29T07:19:12;11.00;99.90
18753;DHT22;9505;50.882;5.350;2022-12-29T07:21:38;10.90;99.90
18753;DHT22;9505;50.882;5.350;2022-12-29T07:24:04;10.90;99.90
18753;DHT22;9505;50.882;5.350;2022-12-29T07:26:30;11.00;99.90
18753;DHT22;9505;50.882;5.350;2022-12-29T07:28:55;10.90;99.90
18753;DHT22;9505;50.882;5.350;2022-12-29T07:31:22;10.80;99.90
18753;DHT22;9505;50.882;5.350;2022-12-29T07:33:48;10.60;99.90
18753;DHT22;9505;50.882;5.350;2022-12-29T07:36:15;10.50;99.90
18753;DHT22;9505;50.882;5.350;2022-12-29T07:38:42;10.30;99.90
18753;DHT22;9505;50.882;5.350;2022-12-29T07:41:08;10.20;99.90
18753;DHT22;9505;50.882;5.350;2022-12-29T07:43:34;10.20;99.90
18753;DHT22;9505;50.882;5.350;2022-12-29T07:46:00;10.20;99.90
18753;DHT22;9505;50.882;5.350;2022-12-29T07:48:25;10.20;99.90
18753;DHT22;9505;50.882;5.350;2022-12-29T07:50:51;10.30;99.90
18753;DHT22;9505;50.882;5.350;2022-12-29T07:53:17;10.30;99.90
18753;DHT22;9505;50.882;5.350;2022-12-29T07:55:43;10.30;99.90
18753;DHT22;9505;50.882;5.350;2022-12-29T07:58:08;10.30;99.90
18753;DHT22;9505;50.882;5.350;2022-12-29T08:00:34;10.30;99.90
18753;DHT22;9505;50.882;5.350;2022-12-29T08:03:00;10.30;99.90
18753;DHT22;9505;50.882;5.350;2022-12-29T08:05:25;10.30;99.90
18753;DHT22;9505;50.882;5.350;2022-12-29T08:07:51;10.30;99.90
18753;DHT22;9505;50.882;5.350;2022-12-29T08:10:17;10.20;99.90
18753;DHT22;9505;50.882;5.350;2022-12-29T08:12:43;10.30;99.90
18753;DHT22;9505;50.882;5.350;2022-12-29T08:15:11;10.40;99.90
18753;DHT22;9505;50.882;5.350;2022-12-29T08:17:37;10.50;99.90
18753;DHT22;9505;50.882;5.350;2022-12-29T08:20:03;10.60;99.90
18753;DHT22;9505;50.882;5.350;2022-12-29T08:22:29;10.60;99.90
18753;DHT22;9505;50.882;5.350;2022-12-29T08:24:55;10.70;99.90
18753;DHT22;9505;50.882;5.350;2022-12-29T08:27:20;10.70;99.90
18753;DHT22;9505;50.882;5.350;2022-12-29T08:29:46;10.80;99.90
18753;DHT22;9505;50.882;5.350;2022-12-29T08:32:12;10.90;99.90
18753;DHT22;9505;50.882;5.350;2022-12-29T08:34:38;10.90;99.90
18753;DHT22;9505;50.882;5.350;2022-12-29T08:37:03;11.00;99.90
18753;DHT22;9505;50.882;5.350;2022-12-29T08:39:29;10.90;99.90
18753;DHT22;9505;50.882;5.350;2022-12-29T08:41:55;11.00;99.90
18753;DHT22;9505;50.882;5.350;2022-12-29T08:44:21;11.00;99.90
18753;DHT22;9505;50.882;5.350;2022-12-29T08:46:47;11.10;99.90
18753;DHT22;9505;50.882;5.350;2022-12-29T08:49:12;11.00;99.90
18753;DHT22;9505;50.882;5.350;2022-12-29T08:51:38;11.00;99.90
18753;DHT22;9505;50.882;5.350;2022-12-29T08:54:04;11.10;99.90
18753;DHT22;9505;50.882;5.350;2022-12-29T08:56:29;11.20;99.90
18753;DHT22;9505;50.882;5.350;2022-12-29T08:58:55;11.10;99.90
18753;DHT22;9505;50.882;5.350;2022-12-29T09:01:21;11.10;99.90
18753;DHT22;9505;50.882;5.350;2022-12-29T09:03:47;10.90;99.90
18753;DHT22;9505;50.882;5.350;2022-12-29T09:06:13;10.70;99.90
18753;DHT22;9505;50.882;5.350;2022-12-29T09:08:39;10.80;99.90
18753;DHT22;9505;50.882;5.350;2022-12-29T09:11:09;11.10;99.90
18753;DHT22;9505;50.882;5.350;2022-12-29T09:13:35;11.20;99.90
18753;DHT22;9505;50.882;5.350;2022-12-29T09:16:02;11.10;99.90
18753;DHT22;9505;50.882;5.350;2022-12-29T09:18:27;11.00;99.90
18753;DHT22;9505;50.882;5.350;2022-12-29T09:21:01;11.10;99.90
18753;DHT22;9505;50.882;5.350;2022-12-29T09:23:27;11.00;99.90
18753;DHT22;9505;50.882;5.350;2022-12-29T09:25:54;10.80;99.90
18753;DHT22;9505;50.882;5.350;2022-12-29T09:28:20;10.70;99.90
18753;DHT22;9505;50.882;5.350;2022-12-29T09:30:46;10.70;99.90
18753;DHT22;9505;50.882;5.350;2022-12-29T09:33:12;10.60;99.90
18753;DHT22;9505;50.882;5.350;2022-12-29T09:35:42;10.70;99.90
18753;DHT22;9505;50.882;5.350;2022-12-29T09:38:07;10.70;99.90
18753;DHT22;9505;50.882;5.350;2022-12-29T09:40:34;10.70;99.90
18753;DHT22;9505;50.882;5.350;2022-12-29T09:46:14;10.70;99.90
18753;DHT22;9505;50.882;5.350;2022-12-29T09:48:48;10.70;99.90
18753;DHT22;9505;50.882;5.350;2022-12-29T09:51:17;10.80;99.90
18753;DHT22;9505;50.882;5.350;2022-12-29T09:53:57;10.80;99.90
18753;DHT22;9505;50.882;5.350;2022-12-29T09:56:24;10.80;99.90
18753;DHT22;9505;50.882;5.350;2022-12-29T09:59:01;10.90;99.90
18753;DHT22;9505;50.882;5.350;2022-12-29T10:01:34;10.90;99.90
18753;DHT22;9505;50.882;5.350;2022-12-29T10:04:02;11.00;99.90
18753;DHT22;9505;50.882;5.350;2022-12-29T10:06:44;10.90;99.90
18753;DHT22;9505;50.882;5.350;2022-12-29T10:09:15;10.80;99.90
18753;DHT22;9505;50.882;5.350;2022-12-29T10:11:57;10.90;99.90
18753;DHT22;9505;50.882;5.350;2022-12-29T10:19:51;11.00;99.90
18753;DHT22;9505;50.882;5.350;2022-12-29T10:25:30;11.10;99.90
18753;DHT22;9505;50.882;5.350;2022-12-29T10:27:57;11.00;99.90
18753;DHT22;9505;50.882;5.350;2022-12-29T10:30:24;11.00;99.90
18753;DHT22;9505;50.882;5.350;2022-12-29T10:32:55;11.00;99.90
18753;DHT22;9505;50.882;5.350;2022-12-29T10:35:24;11.10;99.90
18753;DHT22;9505;50.882;5.350;2022-12-29T10:37:56;11.10;99.90
18753;DHT22;9505;50.882;5.350;2022-12-29T10:45:45;11.50;99.90
18753;DHT22;9505;50.882;5.350;2022-12-29T10:48:21;11.90;99.90
18753;DHT22;9505;50.882;5.350;2022-12-29T10:50:49;12.20;99.90
18753;DHT22;9505;50.882;5.350;2022-12-29T10:53:24;12.20;99.90
18753;DHT22;9505;50.882;5.350;2022-12-29T10:55:51;12.10;99.90
18753;DHT22;9505;50.882;5.350;2022-12-29T10:58:17;12.20;99.90
18753;DHT22;9505;50.882;5.350;2022-12-29T11:00:51;11.90;99.90
18753;DHT22;9505;50.882;5.350;2022-12-29T11:03:49;11.50;99.90
18753;DHT22;9505;50.882;5.350;2022-12-29T11:06:26;11.40;99.90
18753;DHT22;9505;50.882;5.350;2022-12-29T11:09:12;11.50;99.90
18753;DHT22;9505;50.882;5.350;2022-12-29T11:11:39;12.10;99.90
18753;DHT22;9505;50.882;5.350;2022-12-29T11:14:18;11.90;99.90
18753;DHT22;9505;50.882;5.350;2022-12-29T11:16:57;11.90;99.90
18753;DHT22;9505;50.882;5.350;2022-12-29T11:19:26;11.90;99.90
18753;DHT22;9505;50.882;5.350;2022-12-29T11:21:52;11.90;99.90
18753;DHT22;9505;50.882;5.350;2022-12-29T11:24:23;11.80;99.90
18753;DHT22;9505;50.882;5.350;2022-12-29T11:26:51;11.70;99.90
18753;DHT22;9505;50.882;5.350;2022-12-29T11:29:42;11.80;99.90
18753;DHT22;9505;50.882;5.350;2022-12-29T11:32:17;11.60;99.90
18753;DHT22;9505;50.882;5.350;2022-12-29T11:34:43;11.50;99.90
18753;DHT22;9505;50.882;5.350;2022-12-29T11:37:13;11.50;99.90
18753;DHT22;9505;50.882;5.350;2022-12-29T11:40:16;11.50;99.90
18753;DHT22;9505;50.882;5.350;2022-12-29T11:42:50;11.40;99.90
18753;DHT22;9505;50.882;5.350;2022-12-29T11:45:23;11.40;99.90
18753;DHT22;9505;50.882;5.350;2022-12-29T11:47:56;11.40;99.90
18753;DHT22;9505;50.882;5.350;2022-12-29T11:50:25;11.40;99.90
18753;DHT22;9505;50.882;5.350;2022-12-29T11:53:00;11.40;99.90
18753;DHT22;9505;50.882;5.350;2022-12-29T11:55:27;11.30;99.90
18753;DHT22;9505;50.882;5.350;2022-12-29T11:57:56;11.30;99.90
18753;DHT22;9505;50.882;5.350;2022-12-29T12:00:23;11.30;99.90
18753;DHT22;9505;50.882;5.350;2022-12-29T12:03:01;11.30;99.90
18753;DHT22;9505;50.882;5.350;2022-12-29T12:05:43;11.30;99.90
18753;DHT22;9505;50.882;5.350;2022-12-29T12:08:41;11.30;99.90
18753;DHT22;9505;50.882;5.350;2022-12-29T12:11:13;11.30;99.90
18753;DHT22;9505;50.882;5.350;2022-12-29T12:13:59;11.30;99.90
18753;DHT22;9505;50.882;5.350;2022-12-29T12:16:46;11.40;99.90
18753;DHT22;9505;50.882;5.350;2022-12-29T12:19:42;11.50;99.90
18753;DHT22;9505;50.882;5.350;2022-12-29T12:22:32;11.40;99.90
18753;DHT22;9505;50.882;5.350;2022-12-29T12:30:20;11.50;99.90
18753;DHT22;9505;50.882;5.350;2022-12-29T12:32:48;11.50;99.90
18753;DHT22;9505;50.882;5.350;2022-12-29T12:43:39;11.60;99.90
18753;DHT22;9505;50.882;5.350;2022-12-29T13:00:14;11.40;99.90
18753;DHT22;9505;50.882;5.350;2022-12-29T13:11:38;11.30;99.90
18753;DHT22;9505;50.882;5.350;2022-12-29T13:14:36;11.20;99.90
18753;DHT22;9505;50.882;5.350;2022-12-29T13:25:39;11.20;99.90
18753;DHT22;9505;50.882;5.350;2022-12-29T13:28:43;11.20;99.90
18753;DHT22;9505;50.882;5.350;2022-12-29T13:36:37;11.10;99.90
18753;DHT22;9505;50.882;5.350;2022-12-29T13:39:15;11.10;99.90
18753;DHT22;9505;50.882;5.350;2022-12-29T13:41:53;11.00;99.90
18753;DHT22;9505;50.882;5.350;2022-12-29T13:44:27;11.10;99.90
18753;DHT22;9505;50.882;5.350;2022-12-29T13:46:54;11.10;99.90
18753;DHT22;9505;50.882;5.350;2022-12-29T13:49:22;11.10;99.90
18753;DHT22;9505;50.882;5.350;2022-12-29T13:51:54;11.10;99.90
18753;DHT22;9505;50.882;5.350;2022-12-29T13:54:29;11.10;99.90
18753;DHT22;9505;50.882;5.350;2022-12-29T13:57:13;11.20;99.90
18753;DHT22;9505;50.882;5.350;2022-12-29T13:59:54;11.00;99.90
18753;DHT22;9505;50.882;5.350;2022-12-29T14:05:00;11.00;99.90
18753;DHT22;9505;50.882;5.350;2022-12-29T14:07:26;11.10;99.90
18753;DHT22;9505;50.882;5.350;2022-12-29T14:09:54;11.10;99.90
18753;DHT22;9505;50.882;5.350;2022-12-29T14:15:19;11.00;99.90
18753;DHT22;9505;50.882;5.350;2022-12-29T14:20:50;10.90;99.90
18753;DHT22;9505;50.882;5.350;2022-12-29T14:23:46;10.90;99.90
18753;DHT22;9505;50.882;5.350;2022-12-29T14:31:50;10.80;99.90
18753;DHT22;9505;50.882;5.350;2022-12-29T14:39:40;10.80;99.90
18753;DHT22;9505;50.882;5.350;2022-12-29T14:42:13;10.80;99.90
18753;DHT22;9505;50.882;5.350;2022-12-29T14:49:46;10.90;99.90
18753;DHT22;9505;50.882;5.350;2022-12-29T14:52:25;10.80;99.90
18753;DHT22;9505;50.882;5.350;2022-12-29T14:54:58;10.70;99.90
18753;DHT22;9505;50.882;5.350;2022-12-29T14:57:38;10.70;99.90
18753;DHT22;9505;50.882;5.350;2022-12-29T15:00:14;10.70;99.90
18753;DHT22;9505;50.882;5.350;2022-12-29T15:02:45;10.60;99.90
18753;DHT22;9505;50.882;5.350;2022-12-29T15:08:13;10.40;99.90
18753;DHT22;9505;50.882;5.350;2022-12-29T15:11:03;10.40;99.90
18753;DHT22;9505;50.882;5.350;2022-12-29T15:13:49;10.30;99.90
18753;DHT22;9505;50.882;5.350;2022-12-29T15:16:34;10.30;99.90
18753;DHT22;9505;50.882;5.350;2022-12-29T15:19:02;10.20;99.90
18753;DHT22;9505;50.882;5.350;2022-12-29T15:21:32;10.20;99.90
18753;DHT22;9505;50.882;5.350;2022-12-29T15:23:59;10.10;99.90
18753;DHT22;9505;50.882;5.350;2022-12-29T15:26:37;10.00;99.90
18753;DHT22;9505;50.882;5.350;2022-12-29T15:29:03;9.90;99.90
18753;DHT22;9505;50.882;5.350;2022-12-29T15:31:29;9.80;99.90
18753;DHT22;9505;50.882;5.350;2022-12-29T15:34:02;9.80;99.90
18753;DHT22;9505;50.882;5.350;2022-12-29T15:36:29;9.80;99.90
18753;DHT22;9505;50.882;5.350;2022-12-29T15:39:23;9.60;99.90
18753;DHT22;9505;50.882;5.350;2022-12-29T15:44:45;8.90;99.90
18753;DHT22;9505;50.882;5.350;2022-12-29T15:47:19;8.80;99.90
18753;DHT22;9505;50.882;5.350;2022-12-29T15:49:52;8.70;99.90
18753;DHT22;9505;50.882;5.350;2022-12-29T15:52:22;8.70;99.90
18753;DHT22;9505;50.882;5.350;2022-12-29T15:54:50;8.80;99.90
18753;DHT22;9505;50.882;5.350;2022-12-29T15:57:29;8.80;99.90
18753;DHT22;9505;50.882;5.350;2022-12-29T15:59:55;8.70;99.90
18753;DHT22;9505;50.882;5.350;2022-12-29T16:02:22;8.70;99.90
18753;DHT22;9505;50.882;5.350;2022-12-29T16:04:49;8.70;99.90
18753;DHT22;9505;50.882;5.350;2022-12-29T16:07:41;8.70;99.90
18753;DHT22;9505;50.882;5.350;2022-12-29T16:13:05;8.70;99.90
18753;DHT22;9505;50.882;5.350;2022-12-29T16:15:37;8.80;99.90
18753;DHT22;9505;50.882;5.350;2022-12-29T16:18:03;8.90;99.90
18753;DHT22;9505;50.882;5.350;2022-12-29T16:20:39;9.00;99.90
18753;DHT22;9505;50.882;5.350;2022-12-29T16:23:09;8.90;99.90
18753;DHT22;9505;50.882;5.350;2022-12-29T16:25:37;8.80;99.90
18753;DHT22;9505;50.882;5.350;2022-12-29T16:28:21;8.60;99.90
18753;DHT22;9505;50.882;5.350;2022-12-29T16:31:13;8.50;99.90
18753;DHT22;9505;50.882;5.350;2022-12-29T16:33:51;8.40;99.90
18753;DHT22;9505;50.882;5.350;2022-12-29T16:36:25;8.40;99.90
18753;DHT22;9505;50.882;5.350;2022-12-29T16:38:51;8.30;99.90
18753;DHT22;9505;50.882;5.350;2022-12-29T16:41:31;8.20;99.90
18753;DHT22;9505;50.882;5.350;2022-12-29T16:44:17;8.20;99.90
18753;DHT22;9505;50.882;5.350;2022-12-29T16:47:04;8.30;99.90
18753;DHT22;9505;50.882;5.350;2022-12-29T16:49:32;8.20;99.90
18753;DHT22;9505;50.882;5.350;2022-12-29T16:51:58;8.20;99.90
18753;DHT22;9505;50.882;5.350;2022-12-29T16:54:33;8.10;99.90
18753;DHT22;9505;50.882;5.350;2022-12-29T16:57:00;8.20;99.90
18753;DHT22;9505;50.882;5.350;2022-12-29T17:01:59;8.10;99.90
18753;DHT22;9505;50.882;5.350;2022-12-29T17:04:25;8.00;99.90
18753;DHT22;9505;50.882;5.350;2022-12-29T17:06:51;7.90;99.90
18753;DHT22;9505;50.882;5.350;2022-12-29T17:09:25;7.90;99.90
18753;DHT22;9505;50.882;5.350;2022-12-29T17:11:53;7.90;99.90
18753;DHT22;9505;50.882;5.350;2022-12-29T17:17:05;7.90;99.90
18753;DHT22;9505;50.882;5.350;2022-12-29T17:19:35;7.90;99.90
18753;DHT22;9505;50.882;5.350;2022-12-29T17:22:02;7.90;99.90
18753;DHT22;9505;50.882;5.350;2022-12-29T17:24:28;8.00;99.90
18753;DHT22;9505;50.882;5.350;2022-12-29T17:26:56;8.00;99.90
18753;DHT22;9505;50.882;5.350;2022-12-29T17:29:32;8.00;99.90
18753;DHT22;9505;50.882;5.350;2022-12-29T17:32:00;8.00;99.90
18753;DHT22;9505;50.882;5.350;2022-12-29T17:34:26;8.00;99.90
18753;DHT22;9505;50.882;5.350;2022-12-29T17:36:52;8.10;99.90
18753;DHT22;9505;50.882;5.350;2022-12-29T17:39:18;8.10;99.90
18753;DHT22;9505;50.882;5.350;2022-12-29T17:41:44;8.20;99.90
18753;DHT22;9505;50.882;5.350;2022-12-29T17:44:15;8.20;99.90
18753;DHT22;9505;50.882;5.350;2022-12-29T17:46:41;8.20;99.90
18753;DHT22;9505;50.882;5.350;2022-12-29T17:49:14;8.20;99.90
18753;DHT22;9505;50.882;5.350;2022-12-29T17:51:42;8.20;99.90
18753;DHT22;9505;50.882;5.350;2022-12-29T17:54:21;8.20;99.90
18753;DHT22;9505;50.882;5.350;2022-12-29T17:56:47;8.10;99.90
18753;DHT22;9505;50.882;5.350;2022-12-29T17:59:13;8.00;99.90
18753;DHT22;9505;50.882;5.350;2022-12-29T18:01:39;7.90;99.90
18753;DHT22;9505;50.882;5.350;2022-12-29T18:04:05;7.90;99.90
18753;DHT22;9505;50.882;5.350;2022-12-29T18:06:30;7.80;99.90
18753;DHT22;9505;50.882;5.350;2022-12-29T18:08:56;7.70;99.90
18753;DHT22;9505;50.882;5.350;2022-12-29T18:11:24;7.70;99.90
18753;DHT22;9505;50.882;5.350;2022-12-29T18:13:51;7.70;99.90
18753;DHT22;9505;50.882;5.350;2022-12-29T18:16:17;7.60;99.90
18753;DHT22;9505;50.882;5.350;2022-12-29T18:18:43;7.50;99.90
18753;DHT22;9505;50.882;5.350;2022-12-29T18:21:15;7.50;99.90
18753;DHT22;9505;50.882;5.350;2022-12-29T18:23:41;7.50;99.90
18753;DHT22;9505;50.882;5.350;2022-12-29T18:26:19;7.40;99.90